createdAt,value
2023-05-21T00:00:03.965Z,68.30
2023-05-21T00:02:32.430Z,68.42
2023-05-21T00:05:00.805Z,68.73
2023-05-21T00:07:29.337Z,68.73
2023-05-21T00:09:59.248Z,68.36
2023-05-21T00:12:27.609Z,68.40
2023-05-21T00:14:56.085Z,68.84
2023-05-21T00:17:26.247Z,68.92
2023-05-21T00:19:54.781Z,68.94
2023-05-21T00:22:23.214Z,68.59
2023-05-21T00:24:51.673Z,68.88
2023-05-21T00:27:21.390Z,68.69
2023-05-21T00:29:49.829Z,68.78
2023-05-21T00:32:18.325Z,68.93
2023-05-21T00:34:47.443Z,69.26
2023-05-21T00:37:16.461Z,69.01
2023-05-21T00:39:44.860Z,68.78
2023-05-21T00:42:18.356Z,69.28
2023-05-21T00:44:48.577Z,68.93
2023-05-21T00:47:18.369Z,69.42
2023-05-21T00:49:47.400Z,69.32
2023-05-21T00:52:20.363Z,69.62
2023-05-21T00:54:50.626Z,69.37
2023-05-21T00:57:21.778Z,69.47
2023-05-21T00:59:58.191Z,69.48
2023-05-21T01:02:27.085Z,69.63
2023-05-21T01:04:56.900Z,69.70
2023-05-21T01:07:25.303Z,69.85
2023-05-21T01:09:54.364Z,69.73
2023-05-21T01:12:24.809Z,69.94
2023-05-21T01:14:55.151Z,70.21
2023-05-21T01:17:24.654Z,69.71
2023-05-21T01:19:54.775Z,69.89
2023-05-21T01:22:25.156Z,70.04
2023-05-21T01:24:56.219Z,70.23
2023-05-21T01:27:24.679Z,70.00
2023-05-21T01:29:53.095Z,69.84
2023-05-21T01:32:30.530Z,70.04
2023-05-21T01:35:04.944Z,69.90
2023-05-21T01:37:39.354Z,70.08
2023-05-21T01:40:16.310Z,70.13
2023-05-21T01:42:45.958Z,70.19
2023-05-21T01:45:17.214Z,70.56
2023-05-21T01:47:49.286Z,70.47
2023-05-21T01:50:20.288Z,70.92
2023-05-21T01:52:53.096Z,70.75
2023-05-21T01:55:25.060Z,70.78
2023-05-21T01:57:54.588Z,71.10
2023-05-21T02:00:24.658Z,70.72
2023-05-21T02:02:54.058Z,70.98
2023-05-21T02:05:22.654Z,71.36
2023-05-21T02:07:52.757Z,70.93
2023-05-21T02:10:22.823Z,71.49
2023-05-21T02:12:51.246Z,71.51
2023-05-21T02:15:19.816Z,71.85
2023-05-21T02:17:51.460Z,71.52
2023-05-21T02:20:20.202Z,71.34
2023-05-21T02:22:49.922Z,71.52
2023-05-21T02:25:20.804Z,72.05
2023-05-21T02:27:53.720Z,71.61
2023-05-21T02:30:22.288Z,71.51
2023-05-21T02:32:50.831Z,71.90
2023-05-21T02:35:19.476Z,71.73
2023-05-21T02:37:47.845Z,71.66
2023-05-21T02:40:16.365Z,71.91
2023-05-21T02:42:44.667Z,71.97
2023-05-21T02:45:14.571Z,72.30
2023-05-21T02:47:42.966Z,71.74
2023-05-21T02:50:11.823Z,72.00
2023-05-21T02:52:40.138Z,71.77
2023-05-21T02:55:10.058Z,71.84
2023-05-21T02:57:38.561Z,72.07
2023-05-21T03:00:09.958Z,72.14
2023-05-21T03:02:39.770Z,72.05
2023-05-21T03:05:09.564Z,72.34
2023-05-21T03:07:38.198Z,72.42
2023-05-21T03:10:08.167Z,71.94
2023-05-21T03:12:36.652Z,72.11
2023-05-21T03:15:05.717Z,72.54
2023-05-21T03:17:34.126Z,72.46
2023-05-21T03:20:06.030Z,72.40
2023-05-21T03:22:34.412Z,72.43
2023-05-21T03:25:02.848Z,72.34
2023-05-21T03:27:31.169Z,72.14
2023-05-21T03:29:59.546Z,72.54
2023-05-21T03:32:27.973Z,72.41
2023-05-21T03:34:56.320Z,72.64
2023-05-21T03:37:26.270Z,73.02
2023-05-21T03:39:54.603Z,72.74
2023-05-21T03:42:23.028Z,72.76
2023-05-21T03:44:51.382Z,73.09
2023-05-21T03:47:19.789Z,72.97
2023-05-21T03:49:48.216Z,73.01
2023-05-21T03:52:16.650Z,73.51
2023-05-21T03:54:46.542Z,73.25
2023-05-21T03:57:14.932Z,73.62
2023-05-21T03:59:43.370Z,73.29
2023-05-21T04:02:11.870Z,72.90
2023-05-21T04:04:40.286Z,72.88
2023-05-21T04:07:14.394Z,73.04
2023-05-21T04:09:43.166Z,73.30
2023-05-21T04:12:13.055Z,73.02
2023-05-21T04:14:42.148Z,73.00
2023-05-21T04:17:12.797Z,72.66
2023-05-21T04:19:42.125Z,73.01
2023-05-21T04:22:12.326Z,72.65
2023-05-21T04:24:40.697Z,72.39
2023-05-21T04:27:10.106Z,72.67
2023-05-21T04:29:42.798Z,72.76
2023-05-21T04:32:11.800Z,72.67
2023-05-21T04:34:40.187Z,72.54
2023-05-21T04:37:09.466Z,72.21
2023-05-21T04:39:38.482Z,72.50
2023-05-21T04:42:10.849Z,72.34
2023-05-21T04:44:41.451Z,72.27
2023-05-21T04:47:10.394Z,72.06
2023-05-21T04:49:39.064Z,72.50
2023-05-21T04:52:08.388Z,72.35
2023-05-21T04:54:38.985Z,71.91
2023-05-21T04:57:08.022Z,72.37
2023-05-21T04:59:36.842Z,72.23
2023-05-21T05:02:06.993Z,72.50
2023-05-21T05:04:35.428Z,72.04
2023-05-21T05:07:03.862Z,72.69
2023-05-21T05:09:32.312Z,72.40
2023-05-21T05:12:00.839Z,72.24
2023-05-21T05:14:29.271Z,72.20
2023-05-21T05:17:00.972Z,72.23
2023-05-21T05:19:31.967Z,72.15
2023-05-21T05:22:00.492Z,72.15
2023-05-21T05:24:28.911Z,71.57
2023-05-21T05:26:57.255Z,71.41
2023-05-21T05:29:25.846Z,71.72
2023-05-21T05:31:54.174Z,71.39
2023-05-21T05:34:22.559Z,71.42
2023-05-21T05:36:52.254Z,71.25
2023-05-21T05:39:20.785Z,71.10
2023-05-21T05:41:49.206Z,70.68
2023-05-21T05:44:17.689Z,71.03
2023-05-21T05:46:46.275Z,70.34
2023-05-21T05:49:14.981Z,70.05
2023-05-21T05:51:43.301Z,69.88
2023-05-21T05:54:13.223Z,70.03
2023-05-21T05:56:41.663Z,69.59
2023-05-21T05:59:10.234Z,69.56
2023-05-21T06:01:38.721Z,69.50
2023-05-21T06:04:07.213Z,69.28
2023-05-21T06:06:36.823Z,69.16
2023-05-21T06:09:05.379Z,69.17
2023-05-21T06:11:35.409Z,69.15
2023-05-21T06:14:03.805Z,68.78
2023-05-21T06:16:32.363Z,68.49
2023-05-21T06:19:01.229Z,68.15
2023-05-21T06:21:29.574Z,68.25
2023-05-21T06:23:58.001Z,67.59
2023-05-21T06:26:26.745Z,67.43
2023-05-21T06:28:56.667Z,66.81
2023-05-21T06:31:25.123Z,67.04
2023-05-21T06:33:53.773Z,67.13
2023-05-21T06:36:22.672Z,66.64
2023-05-21T06:38:51.058Z,66.37
2023-05-21T06:41:19.562Z,66.36
2023-05-21T06:43:47.948Z,66.01
2023-05-21T06:46:17.676Z,66.04
2023-05-21T06:48:46.842Z,66.31
2023-05-21T06:51:15.420Z,66.44
2023-05-21T06:53:43.876Z,66.21
2023-05-21T06:56:13.164Z,66.32
2023-05-21T06:58:41.605Z,66.15
2023-05-21T07:01:10.024Z,66.27
2023-05-21T07:03:39.828Z,65.98
2023-05-21T07:06:08.673Z,66.30
2023-05-21T07:08:37.210Z,65.83
2023-05-21T07:11:05.613Z,65.62
2023-05-21T07:13:33.997Z,65.51
2023-05-21T07:16:02.456Z,65.14
2023-05-21T07:18:30.791Z,65.08
2023-05-21T07:21:01.161Z,65.02
2023-05-21T07:23:29.659Z,64.66
2023-05-21T07:25:58.062Z,64.53
2023-05-21T07:28:26.435Z,64.41
2023-05-21T07:30:55.054Z,64.34
2023-05-21T07:33:23.699Z,64.04
2023-05-21T07:35:52.453Z,63.74
2023-05-21T07:38:22.464Z,63.39
2023-05-21T07:40:50.878Z,63.10
2023-05-21T07:43:19.580Z,62.77
2023-05-21T07:45:47.914Z,62.33
2023-05-21T07:48:16.340Z,62.25
2023-05-21T07:50:45.055Z,61.66
2023-05-21T07:53:13.442Z,61.38
2023-05-21T07:55:47.839Z,61.93
2023-05-21T07:58:17.702Z,61.56
2023-05-21T08:00:48.777Z,61.45
2023-05-21T08:03:17.912Z,61.42
2023-05-21T08:05:49.150Z,60.72
2023-05-21T08:08:17.883Z,60.10
2023-05-21T08:10:48.002Z,59.90
2023-05-21T08:13:17.320Z,59.95
2023-05-21T08:15:45.935Z,59.64
2023-05-21T08:18:14.304Z,58.92
2023-05-21T08:20:42.727Z,58.60
2023-05-21T08:23:11.184Z,58.50
2023-05-21T08:25:39.760Z,57.90
2023-05-21T08:28:09.547Z,58.06
2023-05-21T08:30:38.027Z,57.76
2023-05-21T08:33:06.542Z,58.08
2023-05-21T08:35:35.146Z,57.65
2023-05-21T08:38:03.662Z,57.88
2023-05-21T08:40:32.022Z,57.85
2023-05-21T08:43:00.516Z,57.23
2023-05-21T08:45:38.385Z,57.08
2023-05-21T08:48:08.160Z,56.92
2023-05-21T08:50:36.524Z,56.80
2023-05-21T08:53:12.711Z,56.72
2023-05-21T08:55:55.782Z,57.14
2023-05-21T08:58:24.614Z,56.95
2023-05-21T09:00:56.078Z,56.46
2023-05-21T09:03:25.532Z,56.85
2023-05-21T09:05:55.159Z,56.82
2023-05-21T09:08:33.036Z,56.77
2023-05-21T09:11:03.350Z,56.54
2023-05-21T09:13:33.510Z,56.61
2023-05-21T09:16:03.286Z,56.65
2023-05-21T09:18:31.814Z,56.47
2023-05-21T09:21:01.005Z,55.69
2023-05-21T09:23:30.435Z,55.79
2023-05-21T09:25:59.773Z,55.62
2023-05-21T09:28:28.133Z,54.86
2023-05-21T09:30:56.666Z,54.98
2023-05-21T09:33:30.852Z,55.44
2023-05-21T09:35:59.383Z,54.88
2023-05-21T09:38:27.816Z,54.53
2023-05-21T09:40:57.748Z,53.91
2023-05-21T09:43:27.141Z,53.72
2023-05-21T09:45:58.446Z,53.24
2023-05-21T09:48:39.660Z,54.32
2023-05-21T09:51:16.738Z,53.59
2023-05-21T09:53:57.943Z,52.60
2023-05-21T09:56:29.583Z,51.32
2023-05-21T09:59:00.529Z,51.92
2023-05-21T10:01:29.697Z,51.29
2023-05-21T10:04:01.843Z,50.48
2023-05-21T10:06:32.343Z,49.97
2023-05-21T10:09:05.896Z,49.88
2023-05-21T10:11:36.582Z,49.00
2023-05-21T10:14:08.687Z,48.27
2023-05-21T10:16:38.571Z,48.23
2023-05-21T10:19:11.235Z,49.33
2023-05-21T10:21:41.228Z,48.57
2023-05-21T10:24:10.880Z,47.92
2023-05-21T10:26:39.826Z,48.67
2023-05-21T10:29:10.391Z,47.79
2023-05-21T10:31:40.833Z,48.22
2023-05-21T10:34:12.808Z,47.96
2023-05-21T10:36:42.614Z,48.82
2023-05-21T10:39:13.130Z,48.53
2023-05-21T10:41:54.440Z,48.36
2023-05-21T10:44:36.289Z,48.60
2023-05-21T10:47:40.168Z,48.59
2023-05-21T10:50:32.784Z,47.86
2023-05-21T10:53:15.001Z,49.14
2023-05-21T10:56:02.976Z,49.28
2023-05-21T10:59:01.066Z,48.45
2023-05-21T11:01:35.796Z,47.69
2023-05-21T11:04:05.777Z,47.75
2023-05-21T11:06:35.912Z,48.48
2023-05-21T11:09:13.990Z,49.08
2023-05-21T11:11:45.020Z,48.44
2023-05-21T11:14:35.618Z,48.12
2023-05-21T11:17:06.372Z,47.81
2023-05-21T11:19:38.504Z,47.94
2023-05-21T11:22:10.695Z,47.91
2023-05-21T11:24:41.356Z,48.07
2023-05-21T11:27:09.959Z,48.32
2023-05-21T11:29:41.600Z,47.98
2023-05-21T11:32:11.553Z,47.59
2023-05-21T11:34:42.534Z,46.86
2023-05-21T11:37:34.523Z,47.60
2023-05-21T11:40:35.512Z,46.56
2023-05-21T11:43:04.395Z,46.81
2023-05-21T11:45:34.325Z,46.45
2023-05-21T11:48:03.037Z,45.99
2023-05-21T11:50:33.767Z,45.83
2023-05-21T11:53:04.248Z,45.89
2023-05-21T11:55:34.672Z,45.24
2023-05-21T11:58:04.049Z,44.15
2023-05-21T12:00:34.246Z,44.07
2023-05-21T12:03:02.879Z,43.01
2023-05-21T12:05:31.340Z,42.50
2023-05-21T12:07:59.798Z,42.70
2023-05-21T12:10:29.610Z,42.74
2023-05-21T12:12:58.009Z,41.83
2023-05-21T12:15:28.225Z,41.94
2023-05-21T12:17:57.941Z,42.29
2023-05-21T12:20:29.145Z,42.33
2023-05-21T12:23:00.585Z,43.17
2023-05-21T12:25:32.128Z,42.11
2023-05-21T12:28:01.454Z,42.27
2023-05-21T12:30:30.388Z,43.04
2023-05-21T12:33:02.343Z,41.68
2023-05-21T12:35:32.827Z,40.74
2023-05-21T12:38:04.068Z,40.46
2023-05-21T12:40:41.049Z,39.67
2023-05-21T12:43:09.973Z,39.13
2023-05-21T12:45:40.913Z,38.58
2023-05-21T12:48:09.585Z,38.62
2023-05-21T12:50:41.822Z,37.29
2023-05-21T12:53:12.416Z,37.59
2023-05-21T12:55:42.321Z,37.30
2023-05-21T12:58:15.461Z,36.76
2023-05-21T13:00:44.284Z,36.43
2023-05-21T13:03:14.204Z,35.86
2023-05-21T13:05:42.572Z,35.12
2023-05-21T13:08:13.870Z,36.21
2023-05-21T13:10:43.873Z,36.30
2023-05-21T13:13:12.165Z,36.04
2023-05-21T13:15:40.571Z,35.23
2023-05-21T13:18:09.307Z,36.07
2023-05-21T13:20:38.321Z,35.32
2023-05-21T13:23:09.037Z,33.94
2023-05-21T13:25:38.998Z,33.19
2023-05-21T13:28:10.578Z,33.60
2023-05-21T13:30:39.267Z,33.17
2023-05-21T13:33:08.389Z,32.38
2023-05-21T13:35:36.901Z,32.86
2023-05-21T13:38:05.282Z,32.99
2023-05-21T13:40:35.454Z,32.51
2023-05-21T13:43:05.456Z,32.10
2023-05-21T13:45:35.364Z,31.92
2023-05-21T13:48:03.908Z,32.05
2023-05-21T13:50:32.356Z,32.55
2023-05-21T13:53:00.876Z,31.77
2023-05-21T13:55:29.335Z,31.56
2023-05-21T13:57:57.709Z,31.47
2023-05-21T14:00:26.115Z,31.45
2023-05-21T14:02:55.974Z,32.07
2023-05-21T14:05:24.545Z,32.23
2023-05-21T14:07:52.909Z,32.34
2023-05-21T14:10:21.490Z,32.68
2023-05-21T14:12:49.852Z,32.95
2023-05-21T14:15:18.506Z,33.16
2023-05-21T14:17:47.005Z,32.49
2023-05-21T14:20:16.820Z,33.02
2023-05-21T14:22:45.240Z,33.19
2023-05-21T14:25:13.567Z,32.95
2023-05-21T14:27:42.095Z,33.10
2023-05-21T14:30:11.810Z,32.77
2023-05-21T14:32:40.204Z,32.98
2023-05-21T14:35:09.294Z,32.80
2023-05-21T14:37:39.206Z,32.31
2023-05-21T14:40:09.643Z,31.34
2023-05-21T14:42:38.195Z,30.77
2023-05-21T14:45:18.738Z,29.72
2023-05-21T14:47:48.883Z,28.79
2023-05-21T14:50:18.960Z,28.22
2023-05-21T14:52:48.760Z,27.55
2023-05-21T14:55:18.590Z,28.28
2023-05-21T14:57:47.235Z,28.21
2023-05-21T15:00:16.456Z,28.53
2023-05-21T15:02:44.967Z,29.37
2023-05-21T15:05:13.489Z,30.00
2023-05-21T15:07:41.815Z,29.45
2023-05-21T15:10:12.549Z,29.64
2023-05-21T15:12:42.075Z,29.87
2023-05-21T15:15:12.262Z,29.35
2023-05-21T15:17:44.037Z,29.35
2023-05-21T15:20:12.918Z,28.77
2023-05-21T15:22:41.355Z,27.84
2023-05-21T15:25:11.800Z,28.70
2023-05-21T15:27:40.076Z,28.87
2023-05-21T15:30:09.637Z,29.15
2023-05-21T15:32:38.159Z,30.19
2023-05-21T15:35:07.722Z,30.50
2023-05-21T15:37:36.218Z,28.97
2023-05-21T15:40:05.405Z,28.82
2023-05-21T15:42:35.070Z,28.60
2023-05-21T15:45:03.469Z,28.04
2023-05-21T15:47:31.831Z,28.45
2023-05-21T15:50:00.588Z,28.21
2023-05-21T15:52:29.229Z,28.13
2023-05-21T15:54:57.885Z,27.95
2023-05-21T15:57:26.307Z,27.92
2023-05-21T15:59:57.340Z,28.97
2023-05-21T16:02:25.846Z,29.42
2023-05-21T16:04:54.198Z,30.04
2023-05-21T16:07:24.509Z,30.74
2023-05-21T16:09:53.073Z,32.14
2023-05-21T16:12:21.444Z,33.13
2023-05-21T16:14:50.900Z,33.65
2023-05-21T16:17:20.857Z,34.95
2023-05-21T16:19:49.258Z,35.39
2023-05-21T16:22:17.577Z,35.43
2023-05-21T16:24:45.992Z,36.61
2023-05-21T16:27:14.526Z,37.13
2023-05-21T16:29:42.973Z,38.00
2023-05-21T16:32:13.121Z,38.05
2023-05-21T16:34:42.980Z,38.25
2023-05-21T16:37:11.447Z,38.56
2023-05-21T16:39:40.044Z,38.95
2023-05-21T16:42:08.594Z,40.10
2023-05-21T16:44:37.945Z,40.62
2023-05-21T16:47:06.940Z,40.16
2023-05-21T16:49:35.559Z,41.41
2023-05-21T16:52:05.646Z,41.08
2023-05-21T16:54:35.160Z,41.99
2023-05-21T16:57:03.504Z,41.78
2023-05-21T16:59:31.806Z,42.62
2023-05-21T17:02:00.229Z,43.17
2023-05-21T17:04:29.155Z,43.17
2023-05-21T17:06:57.770Z,43.12
2023-05-21T17:09:27.454Z,44.08
2023-05-21T17:11:56.097Z,44.16
2023-05-21T17:14:33.703Z,44.60
2023-05-21T17:17:03.106Z,44.99
2023-05-21T17:19:33.632Z,45.19
2023-05-21T17:22:02.138Z,45.92
2023-05-21T17:24:31.964Z,46.63
2023-05-21T17:27:02.807Z,47.38
2023-05-21T17:29:31.246Z,47.95
2023-05-21T17:32:00.059Z,48.69
2023-05-21T17:34:30.378Z,49.08
2023-05-21T17:37:00.139Z,50.07
2023-05-21T17:39:28.522Z,50.61
2023-05-21T17:42:01.504Z,51.27
2023-05-21T17:44:29.960Z,51.71
2023-05-21T17:46:58.321Z,52.33
2023-05-21T17:49:26.728Z,52.40
2023-05-21T17:51:55.236Z,53.10
2023-05-21T17:54:23.796Z,53.37
2023-05-21T17:56:52.220Z,54.20
2023-05-21T17:59:22.405Z,54.73
2023-05-21T18:01:50.850Z,55.05
2023-05-21T18:04:19.650Z,55.78
2023-05-21T18:06:48.057Z,55.70
2023-05-21T18:09:16.607Z,55.99
2023-05-21T18:11:45.435Z,55.96
2023-05-21T18:14:13.924Z,56.85
2023-05-21T18:16:43.832Z,57.04
2023-05-21T18:19:12.350Z,57.75
2023-05-21T18:21:41.207Z,57.83
2023-05-21T18:24:09.968Z,57.91
2023-05-21T18:26:38.332Z,58.71
2023-05-21T18:29:07.118Z,59.20
2023-05-21T18:31:35.751Z,59.11
2023-05-21T18:34:05.752Z,59.31
2023-05-21T18:36:38.818Z,59.70
2023-05-21T18:39:08.220Z,60.65
2023-05-21T18:41:37.420Z,60.63
2023-05-21T18:44:06.484Z,60.90
2023-05-21T18:46:34.973Z,61.45
2023-05-21T18:49:05.065Z,61.77
2023-05-21T18:51:33.493Z,62.36
2023-05-21T18:54:01.932Z,62.34
2023-05-21T18:56:30.272Z,62.65
2023-05-21T18:58:58.724Z,63.25
2023-05-21T19:01:28.273Z,63.31
2023-05-21T19:03:56.633Z,63.26
2023-05-21T19:06:27.822Z,63.73
2023-05-21T19:08:56.367Z,64.07
2023-05-21T19:11:27.608Z,64.20
2023-05-21T19:13:56.003Z,64.77
2023-05-21T19:16:24.562Z,64.83
2023-05-21T19:18:53.585Z,65.17
2023-05-21T19:21:22.375Z,65.58
2023-05-21T19:23:53.596Z,65.72
2023-05-21T19:26:23.513Z,65.65
2023-05-21T19:28:53.913Z,66.04
2023-05-21T19:31:23.589Z,66.32
2023-05-21T19:33:52.270Z,66.39
2023-05-21T19:36:22.039Z,66.68
2023-05-21T19:38:52.555Z,66.98
2023-05-21T19:41:22.730Z,67.35
2023-05-21T19:43:52.226Z,67.63
2023-05-21T19:46:20.994Z,67.82
2023-05-21T19:48:50.027Z,68.33
2023-05-21T19:51:19.016Z,68.50
2023-05-21T19:53:47.587Z,68.89
2023-05-21T19:56:17.555Z,69.05
2023-05-21T19:58:48.069Z,69.09
2023-05-21T20:01:17.864Z,69.68
2023-05-21T20:03:46.626Z,69.75
2023-05-21T20:06:19.072Z,70.00
2023-05-21T20:08:47.866Z,70.24
2023-05-21T20:11:18.084Z,70.32
2023-05-21T20:13:50.141Z,70.57
2023-05-21T20:16:18.943Z,70.72
2023-05-21T20:18:47.999Z,71.06
2023-05-21T20:21:20.380Z,71.21
2023-05-21T20:23:49.470Z,71.70
2023-05-21T20:26:20.872Z,72.00
2023-05-21T20:28:49.558Z,72.25
2023-05-21T20:31:18.365Z,72.17
2023-05-21T20:33:46.950Z,73.03
2023-05-21T20:36:17.771Z,72.77
2023-05-21T20:38:47.265Z,73.13
2023-05-21T20:41:15.835Z,73.13
2023-05-21T20:43:46.470Z,73.48
2023-05-21T20:46:17.455Z,74.11
2023-05-21T20:48:46.094Z,73.92
2023-05-21T20:51:14.601Z,74.16
2023-05-21T20:53:43.295Z,74.58
2023-05-21T20:56:14.925Z,74.65
2023-05-21T20:58:44.963Z,74.99
2023-05-21T21:01:14.642Z,75.09
2023-05-21T21:03:45.828Z,75.30
2023-05-21T21:06:14.458Z,75.61
2023-05-21T21:08:46.183Z,75.92
2023-05-21T21:11:14.723Z,76.23
2023-05-21T21:13:44.871Z,76.03
2023-05-21T21:16:13.223Z,76.20
2023-05-21T21:18:41.605Z,76.39
2023-05-21T21:21:10.135Z,76.46
2023-05-21T21:23:39.072Z,76.74
2023-05-21T21:26:08.086Z,76.93
2023-05-21T21:28:36.825Z,76.76
2023-05-21T21:31:07.326Z,77.01
2023-05-21T21:33:36.129Z,77.12
2023-05-21T21:36:05.018Z,77.04
2023-05-21T21:38:33.486Z,77.53
2023-05-21T21:41:02.006Z,77.16
2023-05-21T21:43:30.460Z,77.60
2023-05-21T21:45:59.049Z,77.76
2023-05-21T21:48:28.892Z,77.74
2023-05-21T21:50:58.488Z,77.69
2023-05-21T21:53:26.929Z,77.74
2023-05-21T21:55:55.931Z,78.09
2023-05-21T21:58:24.778Z,78.38
2023-05-21T22:00:53.717Z,78.36
2023-05-21T22:03:22.269Z,78.40
2023-05-21T22:05:52.318Z,78.80
2023-05-21T22:08:20.897Z,78.36
2023-05-21T22:10:49.344Z,78.53
2023-05-21T22:13:18.125Z,78.63
2023-05-21T22:15:46.522Z,79.01
2023-05-21T22:18:28.268Z,79.06
2023-05-21T22:21:10.024Z,79.18
2023-05-21T22:23:39.803Z,79.43
2023-05-21T22:26:08.443Z,79.94
2023-05-21T22:28:37.224Z,79.47
2023-05-21T22:31:09.006Z,79.82
2023-05-21T22:33:38.106Z,79.96
2023-05-21T22:36:09.276Z,79.91
2023-05-21T22:38:38.373Z,79.69
2023-05-21T22:41:08.528Z,80.37
2023-05-21T22:43:38.315Z,80.24
2023-05-21T22:46:07.193Z,80.78
2023-05-21T22:48:37.347Z,80.73
2023-05-21T22:51:07.861Z,80.75
2023-05-21T22:53:36.993Z,80.90
2023-05-21T22:56:06.377Z,81.02
2023-05-21T22:58:35.236Z,81.02
2023-05-21T23:01:03.753Z,81.18
2023-05-21T23:03:32.153Z,81.08
2023-05-21T23:06:00.615Z,81.20
2023-05-21T23:08:30.366Z,81.19
2023-05-21T23:10:58.714Z,81.40
2023-05-21T23:13:27.130Z,81.62
2023-05-21T23:15:58.885Z,81.54
2023-05-21T23:18:27.422Z,81.50
2023-05-21T23:20:55.944Z,81.88
2023-05-21T23:23:24.552Z,81.58
2023-05-21T23:25:57.589Z,81.88
2023-05-21T23:28:26.597Z,81.77
2023-05-21T23:30:55.012Z,81.64
2023-05-21T23:33:23.498Z,81.80
2023-05-21T23:35:51.972Z,81.80
2023-05-21T23:38:20.500Z,81.98
2023-05-21T23:40:49.135Z,81.93
2023-05-21T23:43:19.316Z,81.84
2023-05-21T23:45:47.963Z,81.80
2023-05-21T23:48:16.372Z,81.97
2023-05-21T23:50:44.792Z,82.14
2023-05-21T23:53:13.212Z,81.74
2023-05-21T23:55:42.093Z,81.90
2023-05-21T23:58:10.518Z,82.05
